Time;durP1;ratioP1;P1;durP2;ratioP2;P2;SDS_P1;SDS_P2;PMS_P1;PMS_P2;Temp;Humidity;BMP_temperature;BMP_pressure;BME280_temperature;BME280_humidity;BME280_pressure;Samples;Min_cycle;Max_cycle;Signal;HPM_P1;HPM_P2
2022/07/04 00:04:18;;;;;;;1.60;1.43;;;23.30;29.90;;;;;;10285348;28;20250;-70
2022/07/04 00:09:22;;;;;;;1.60;1.50;;;23.20;29.50;;;;;;10286984;28;20704;-70
2022/07/04 00:14:26;;;;;;;1.67;1.57;;;23.10;29.70;;;;;;10282460;28;20250;-71
2022/07/04 00:19:30;;;;;;;3.03;1.50;;;23.00;30.60;;;;;;10283904;28;20699;-70
2022/07/04 00:24:33;;;;;;;2.37;1.60;;;22.80;30.10;;;;;;10285062;28;20234;-70
2022/07/04 00:29:37;;;;;;;1.77;1.60;;;22.80;30.20;;;;;;10282983;28;20231;-70
2022/07/04 00:34:41;;;;;;;1.70;1.60;;;22.80;31.20;;;;;;10278148;28;20232;-70
2022/07/04 00:39:44;;;;;;;2.37;1.60;;;22.80;30.60;;;;;;10278040;28;20747;-70
2022/07/04 00:44:49;;;;;;;1.93;1.80;;;22.90;30.80;;;;;;10277515;28;20231;-70
2022/07/04 00:49:52;;;;;;;1.30;1.27;;;22.90;31.30;;;;;;10278801;28;20591;-71
2022/07/04 00:54:55;;;;;;;1.60;1.50;;;23.00;30.80;;;;;;10281675;28;20227;-70
2022/07/04 01:00:00;;;;;;;1.50;1.40;;;23.10;31.10;;;;;;10281483;28;20735;-70
2022/07/04 01:05:03;;;;;;;2.10;1.50;;;23.20;31.60;;;;;;10319096;28;20596;-71
2022/07/04 01:10:08;;;;;;;1.80;1.60;;;23.30;31.20;;;;;;10319023;28;20227;-71
2022/07/04 01:15:12;;;;;;;1.83;1.50;;;23.30;31.10;;;;;;10323077;28;20544;-70
2022/07/04 01:20:17;;;;;;;1.63;1.53;;;23.30;31.50;;;;;;10322076;28;20235;-70
2022/07/04 01:25:20;;;;;;;2.17;1.60;;;23.30;31.70;;;;;;10321194;28;20242;-75
2022/07/04 01:30:24;;;;;;;2.00;1.80;;;23.30;31.10;;;;;;10323314;28;20321;-75
2022/07/04 01:35:29;;;;;;;1.57;1.47;;;23.30;31.30;;;;;;10317585;28;20226;-75
2022/07/04 01:40:32;;;;;;;2.87;1.77;;;23.30;32.00;;;;;;10320144;28;20230;-75
2022/07/04 01:45:37;;;;;;;1.63;1.53;;;23.30;31.20;;;;;;10318905;28;20733;-75
2022/07/04 01:50:42;;;;;;;1.70;1.60;;;23.30;31.60;;;;;;10320856;28;20585;-75
2022/07/04 01:55:45;;;;;;;1.73;1.60;;;23.30;31.70;;;;;;10321725;28;20460;-75
2022/07/04 02:06:10;;;;;;;1.70;1.60;;;23.30;31.60;;;;;;10320322;28;20257;-75
2022/07/04 02:11:13;;;;;;;2.13;1.70;;;23.30;32.20;;;;;;10324173;28;20261;-75
2022/07/04 02:16:17;;;;;;;2.00;1.90;;;23.30;31.80;;;;;;10328504;28;20230;-77
2022/07/04 02:21:21;;;;;;;1.60;1.50;;;23.30;31.90;;;;;;10330847;28;20657;-78
2022/07/04 02:26:25;;;;;;;1.87;1.60;;;23.20;32.40;;;;;;10328760;28;20226;-78
2022/07/04 02:31:28;;;;;;;1.80;1.70;;;23.10;31.90;;;;;;10326897;28;20737;-78
2022/07/04 02:36:33;;;;;;;2.00;1.80;;;23.10;33.00;;;;;;10330055;28;20230;-77
2022/07/04 02:41:36;;;;;;;2.60;1.60;;;23.10;32.90;;;;;;10328174;28;20261;-77
2022/07/04 02:46:39;;;;;;;3.77;1.67;;;22.90;32.20;;;;;;10322760;28;20655;-78
2022/07/04 02:51:44;;;;;;;1.83;1.67;;;22.90;32.40;;;;;;10332872;28;20233;-77
2022/07/04 02:56:47;;;;;;;1.87;1.67;;;22.80;32.80;;;;;;10321116;28;20226;-78
2022/07/04 03:01:50;;;;;;;1.83;1.70;;;22.80;32.50;;;;;;10331220;28;20227;-78
2022/07/04 03:06:55;;;;;;;3.10;1.90;;;22.80;32.70;;;;;;10327337;28;20231;-78
2022/07/04 03:11:58;;;;;;;2.23;1.50;;;22.80;33.20;;;;;;10326801;28;20583;-78
2022/07/04 03:17:01;;;;;;;2.23;1.60;;;22.70;32.70;;;;;;10325780;28;20227;-73
2022/07/04 03:22:06;;;;;;;1.67;1.57;;;22.70;32.80;;;;;;10331461;28;20234;-78
2022/07/04 03:27:10;;;;;;;1.73;1.63;;;22.70;33.50;;;;;;10320404;28;20247;-73
2022/07/04 03:32:13;;;;;;;1.80;1.57;;;22.60;33.10;;;;;;10325129;28;20234;-73
2022/07/04 03:37:17;;;;;;;2.17;1.77;;;22.60;33.10;;;;;;10321043;28;20235;-73
2022/07/04 03:42:21;;;;;;;1.70;1.60;;;22.60;33.80;;;;;;10326564;28;20246;-73
2022/07/04 03:47:24;;;;;;;1.80;1.70;;;22.60;33.40;;;;;;10317705;28;20236;-73
2022/07/04 03:52:29;;;;;;;2.23;1.97;;;22.60;33.70;;;;;;10322363;28;20484;-73
2022/07/04 03:57:32;;;;;;;1.80;1.70;;;22.70;34.30;;;;;;10317228;28;20231;-73
2022/07/04 04:02:35;;;;;;;2.33;1.80;;;22.70;33.90;;;;;;10323187;28;20231;-73
2022/07/04 04:07:40;;;;;;;1.80;1.70;;;22.70;34.10;;;;;;10321842;28;20261;-73
2022/07/04 04:12:43;;;;;;;2.47;1.90;;;22.70;34.40;;;;;;10320071;28;20242;-73
2022/07/04 04:17:47;;;;;;;1.70;1.60;;;22.80;34.10;;;;;;10313911;28;20618;-73
2022/07/04 04:22:51;;;;;;;1.90;1.80;;;22.80;34.10;;;;;;10319662;28;20606;-73
2022/07/04 04:27:54;;;;;;;2.73;1.97;;;22.80;34.70;;;;;;10314890;28;20310;-73
2022/07/04 04:32:57;;;;;;;2.13;1.97;;;22.90;34.50;;;;;;10319054;28;20230;-73
2022/07/04 04:38:02;;;;;;;2.67;1.83;;;22.90;34.90;;;;;;10317825;28;20318;-73
2022/07/04 04:43:05;;;;;;;2.50;2.00;;;22.80;35.40;;;;;;10322950;28;20607;-78
2022/07/04 04:48:09;;;;;;;3.27;1.93;;;22.80;35.20;;;;;;10325723;28;20222;-77
2022/07/04 04:53:14;;;;;;;2.10;1.90;;;22.70;35.30;;;;;;10321727;28;20236;-71
2022/07/04 04:58:17;;;;;;;2.53;2.00;;;22.70;36.00;;;;;;10323814;28;20582;-70
2022/07/04 05:03:20;;;;;;;2.00;1.80;;;22.70;35.70;;;;;;10321256;28;20237;-70
2022/07/04 05:08:25;;;;;;;2.37;2.17;;;22.70;35.90;;;;;;10319376;28;20313;-71
2022/07/04 05:13:28;;;;;;;2.70;2.17;;;22.70;36.70;;;;;;10316491;28;20226;-73
2022/07/04 05:18:31;;;;;;;2.27;2.10;;;22.70;36.30;;;;;;10315124;28;20707;-74
2022/07/04 05:23:36;;;;;;;3.17;2.10;;;22.80;36.60;;;;;;10319457;28;20246;-74
2022/07/04 05:28:39;;;;;;;4.87;2.37;;;22.90;37.50;;;;;;10316933;28;20230;-75
2022/07/04 05:33:42;;;;;;;2.20;2.00;;;22.90;36.60;;;;;;10315845;28;20242;-75
2022/07/04 05:38:47;;;;;;;3.13;2.30;;;22.90;36.50;;;;;;10312931;28;20238;-74
2022/07/04 05:43:50;;;;;;;2.40;2.20;;;23.00;37.40;;;;;;10323636;28;20249;-74
2022/07/04 05:49:00;;;;;;;2.40;2.20;;;23.10;37.10;;;;;;10321008;28;20222;-74
2022/07/04 05:54:05;;;;;;;4.07;2.33;;;23.20;37.40;;;;;;10324156;28;20218;-74
2022/07/04 05:59:08;;;;;;;2.47;2.27;;;23.20;38.10;;;;;;10322552;28;20588;-74
2022/07/04 06:04:11;;;;;;;2.00;1.90;;;23.30;37.60;;;;;;10326377;28;20596;-70
2022/07/04 06:09:16;;;;;;;1.73;1.63;;;23.30;37.60;;;;;;10323888;28;20709;-70
2022/07/04 06:14:19;;;;;;;1.80;1.70;;;23.40;38.10;;;;;;10328905;28;20686;-75
2022/07/04 06:19:22;;;;;;;3.40;2.13;;;23.50;37.30;;;;;;10328365;28;20238;-75
2022/07/04 06:24:27;;;;;;;1.90;1.80;;;23.60;37.10;;;;;;10329675;28;20707;-75
2022/07/04 06:29:30;;;;;;;2.10;2.00;;;23.70;37.00;;;;;;10325597;28;20230;-78
2022/07/04 06:39:55;;;;;;;1.80;1.70;;;23.90;36.50;;;;;;10324559;28;20736;-76
2022/07/04 06:44:59;;;;;;;1.93;1.83;;;24.00;36.90;;;;;;10321023;28;20227;-77
2022/07/04 06:50:02;;;;;;;2.00;1.90;;;24.00;36.40;;;;;;10320555;28;20227;-72
2022/07/04 06:55:27;;;;;;;2.47;1.83;;;24.10;36.50;;;;;;10319941;28;20230;-70
2022/07/04 07:00:30;;;;;;;2.40;1.90;;;24.30;36.80;;;;;;10319910;28;20231;-77
2022/07/04 07:05:36;;;;;;;2.27;1.80;;;24.40;36.50;;;;;;10326267;28;20238;-77
2022/07/04 07:11:12;;;;;;;2.07;1.97;;;24.50;36.30;;;;;;10320494;28;20227;-77
2022/07/04 07:16:17;;;;;;;1.90;1.80;;;24.60;36.40;;;;;;10314500;28;20296;-74
2022/07/04 07:21:20;;;;;;;2.87;1.90;;;24.70;36.50;;;;;;10316647;28;20309;-73
2022/07/04 07:26:25;;;;;;;2.20;2.00;;;24.80;36.40;;;;;;10318455;28;20246;-74
2022/07/04 07:31:28;;;;;;;2.27;1.90;;;24.90;36.60;;;;;;10323762;28;20601;-76
2022/07/04 07:36:31;;;;;;;2.10;2.00;;;25.00;36.50;;;;;;10315182;28;20993;-75
2022/07/04 07:41:36;;;;;;;2.30;2.10;;;25.10;36.20;;;;;;10322723;28;20609;-76
2022/07/04 07:46:39;;;;;;;2.33;2.13;;;25.20;36.50;;;;;;10316702;28;20226;-70
2022/07/04 07:51:43;;;;;;;3.17;2.07;;;25.20;36.90;;;;;;10314998;28;20227;-70
2022/07/04 07:56:47;;;;;;;2.40;2.20;;;25.30;36.20;;;;;;10323030;28;20233;-71
2022/07/04 08:01:50;;;;;;;2.40;2.20;;;25.40;36.30;;;;;;10317056;28;20229;-71
2022/07/04 08:06:54;;;;;;;4.40;2.83;;;25.40;35.90;;;;;;10305373;28;20238;-70
2022/07/04 08:12:18;;;;;;;4.43;2.30;;;25.50;35.90;;;;;;10303661;28;20234;-71
2022/07/04 08:17:21;;;;;;;2.40;2.20;;;25.40;35.90;;;;;;10308126;28;20269;-70
2022/07/04 08:22:25;;;;;;;2.40;2.20;;;25.40;35.80;;;;;;10304462;28;20730;-70
2022/07/04 08:27:29;;;;;;;2.53;2.33;;;25.40;35.90;;;;;;10311840;28;20233;-71
2022/07/04 08:32:36;;;;;;;2.47;2.27;;;25.40;35.90;;;;;;10311260;28;20277;-70
2022/07/04 08:37:40;;;;;;;4.40;2.10;;;25.50;35.70;;;;;;10315077;28;20226;-78
2022/07/04 08:42:45;;;;;;;2.63;2.40;;;25.50;35.70;;;;;;10307480;28;20521;-78
2022/07/04 08:47:52;;;;;;;2.70;2.50;;;25.50;36.10;;;;;;10311147;28;20245;-77
2022/07/04 08:52:59;;;;;;;3.37;2.63;;;25.60;36.40;;;;;;10311554;28;20239;-77
2022/07/04 09:03:25;;;;;;;3.27;2.27;;;25.90;36.80;;;;;;10307316;28;20255;-70
2022/07/04 09:08:29;;;;;;;3.03;2.47;;;26.10;36.10;;;;;;10306650;28;20322;-70
2022/07/04 09:13:34;;;;;;;2.43;2.23;;;26.30;36.00;;;;;;10309419;28;20238;-71
2022/07/04 09:18:37;;;;;;;2.17;2.07;;;26.60;35.90;;;;;;10307917;28;20238;-70
2022/07/04 09:23:42;;;;;;;2.17;2.07;;;26.80;35.30;;;;;;10307885;28;20222;-71
2022/07/04 09:28:53;;;;;;;2.33;2.13;;;27.00;34.70;;;;;;10321553;28;20238;-70
2022/07/04 09:33:58;;;;;;;2.10;2.00;;;27.10;34.30;;;;;;10318657;28;20234;-70
2022/07/04 09:39:14;;;;;;;2.47;2.30;;;27.30;34.50;;;;;;10323447;28;20738;-73
2022/07/04 09:44:19;;;;;;;2.30;2.10;;;27.50;34.30;;;;;;10325044;28;20601;-70
2022/07/04 09:49:23;;;;;;;3.87;2.47;;;27.70;33.60;;;;;;10323304;28;20241;-70
2022/07/04 09:54:31;;;;;;;2.53;2.00;;;27.90;33.60;;;;;;10326160;28;20237;-76
2022/07/04 09:59:36;;;;;;;1.90;1.80;;;28.10;33.40;;;;;;10322032;28;20219;-76
2022/07/04 10:04:48;;;;;;;2.30;2.10;;;28.20;32.80;;;;;;10314628;28;21140;-78
2022/07/04 10:09:52;;;;;;;2.30;2.10;;;28.40;32.70;;;;;;10322364;28;20309;-78
2022/07/04 10:14:58;;;;;;;2.17;1.97;;;28.70;33.40;;;;;;10306535;28;20368;-78
2022/07/04 10:20:02;;;;;;;2.30;2.20;;;28.80;31.70;;;;;;10305477;28;20245;-78
2022/07/04 10:25:07;;;;;;;2.60;2.40;;;28.90;32.20;;;;;;10305669;28;20235;-73
2022/07/04 10:30:16;;;;;;;3.57;2.30;;;29.00;31.00;;;;;;10308391;28;20835;-78
2022/07/04 10:35:50;;;;;;;2.43;2.23;;;29.00;30.90;;;;;;10325938;28;20237;-78
2022/07/04 10:40:56;;;;;;;2.30;2.10;;;29.20;31.00;;;;;;10326022;28;20242;-78
2022/07/04 10:46:24;;;;;;;2.30;2.10;;;29.20;30.30;;;;;;10310666;28;20235;-77
2022/07/04 10:51:42;;;;;;;2.37;2.17;;;29.30;30.90;;;;;;10317147;28;20235;-78
2022/07/04 10:56:49;;;;;;;2.00;1.90;;;29.40;29.40;;;;;;10327752;28;20222;-78
2022/07/04 11:02:27;;;;;;;2.00;1.80;;;29.40;29.60;;;;;;10316854;28;20235;-78
2022/07/04 11:07:57;;;;;;;1.83;1.73;;;29.50;29.70;;;;;;10320642;28;20660;-76
2022/07/04 11:13:23;;;;;;;2.07;1.90;;;29.60;29.40;;;;;;10307069;28;20703;-77
2022/07/04 11:18:29;;;;;;;2.07;1.97;;;29.60;28.70;;;;;;10312936;28;20222;-76
2022/07/04 11:23:32;;;;;;;2.57;2.30;;;29.60;29.10;;;;;;10308870;28;20241;-76
2022/07/04 11:28:37;;;;;;;2.63;1.90;;;29.70;29.30;;;;;;10318486;28;20234;-78
2022/07/04 11:33:49;;;;;;;2.27;2.07;;;29.80;29.00;;;;;;10320408;28;20381;-78
2022/07/04 11:38:54;;;;;;;2.10;1.97;;;29.80;28.40;;;;;;10315586;28;20223;-77
2022/07/04 11:49:20;;;;;;;2.23;1.80;;;29.70;28.70;;;;;;10315440;28;20248;-78
2022/07/04 11:54:23;;;;;;;2.70;2.00;;;29.60;28.30;;;;;;10313580;28;21049;-78
2022/07/04 11:59:38;;;;;;;2.00;1.90;;;29.60;28.90;;;;;;10317234;28;20226;-78
2022/07/04 12:04:46;;;;;;;1.90;1.80;;;29.60;28.80;;;;;;10317408;28;20231;-79
2022/07/04 12:09:49;;;;;;;1.90;1.80;;;29.70;28.20;;;;;;10312526;28;20303;-78
2022/07/04 12:15:01;;;;;;;2.10;1.90;;;29.80;28.50;;;;;;10308149;28;20229;-78
2022/07/04 12:20:13;;;;;;;2.20;1.73;;;29.90;27.90;;;;;;10298246;28;20215;-79
2022/07/04 12:25:25;;;;;;;1.90;1.80;;;30.10;27.90;;;;;;10307279;28;20653;-77
2022/07/04 12:30:30;;;;;;;1.83;1.73;;;30.20;27.50;;;;;;10296977;28;20313;-78
2022/07/04 12:35:41;;;;;;;1.80;1.70;;;30.40;27.80;;;;;;10302813;28;20233;-78
2022/07/04 12:40:58;;;;;;;1.97;1.70;;;30.50;25.90;;;;;;10303857;28;20239;-79
2022/07/04 12:46:01;;;;;;;2.27;1.50;;;30.50;26.10;;;;;;10305451;28;21161;-78
2022/07/04 12:51:13;;;;;;;1.70;1.60;;;30.40;26.80;;;;;;10302534;28;20226;-78
2022/07/04 12:56:29;;;;;;;2.23;1.80;;;30.40;27.50;;;;;;10307033;28;20233;-78
2022/07/04 13:01:32;;;;;;;1.90;1.80;;;30.40;26.80;;;;;;10301391;28;20231;-77
2022/07/04 13:06:38;;;;;;;1.93;1.70;;;30.50;26.40;;;;;;10303096;28;20253;-79
2022/07/04 13:17:01;;;;;;;1.70;1.60;;;30.60;26.20;;;;;;10299903;28;20229;-78
2022/07/04 13:22:06;;;;;;;2.70;1.70;;;30.70;26.00;;;;;;10297688;28;20230;-70
2022/07/04 13:27:10;;;;;;;1.70;1.60;;;30.70;25.30;;;;;;10302118;28;20227;-70
2022/07/04 13:32:14;;;;;;;1.87;1.60;;;30.80;25.80;;;;;;10305361;28;20628;-70
2022/07/04 13:37:18;;;;;;;1.73;1.63;;;30.90;25.30;;;;;;10310677;28;20229;-77
2022/07/04 13:47:39;;;;;;;3.87;1.53;;;30.70;25.00;;;;;;10314682;28;20222;-76
2022/07/04 13:52:44;;;;;;;1.83;1.73;;;30.70;25.00;;;;;;10311217;28;20315;-76
2022/07/04 13:57:48;;;;;;;1.90;1.80;;;30.60;24.30;;;;;;10307390;28;20219;-75
2022/07/04 14:02:51;;;;;;;1.97;1.60;;;30.60;24.90;;;;;;10309094;28;20239;-77
2022/07/04 14:07:56;;;;;;;1.57;1.47;;;30.70;24.80;;;;;;10315237;28;20226;-70
2022/07/04 14:12:59;;;;;;;2.43;1.80;;;30.70;24.00;;;;;;10318160;28;20226;-70
2022/07/04 14:18:03;;;;;;;1.70;1.60;;;30.70;23.90;;;;;;10324937;28;20238;-73
2022/07/04 14:23:07;;;;;;;1.90;1.53;;;30.60;24.10;;;;;;10320076;28;20233;-73
2022/07/04 14:28:11;;;;;;;2.00;1.80;;;30.70;24.40;;;;;;10318525;28;20238;-73
2022/07/04 14:33:14;;;;;;;1.87;1.57;;;30.90;24.60;;;;;;10303540;28;20223;-75
2022/07/04 14:38:18;;;;;;;1.90;1.50;;;31.00;24.30;;;;;;10303329;28;20227;-71
2022/07/04 14:43:22;;;;;;;3.10;1.80;;;31.00;23.60;;;;;;10290441;28;20451;-72
2022/07/04 14:48:25;;;;;;;1.90;1.80;;;31.00;23.10;;;;;;10298926;28;20785;-72
2022/07/04 14:53:30;;;;;;;2.90;1.60;;;31.00;23.70;;;;;;10301455;28;20610;-71
2022/07/04 14:58:33;;;;;;;4.63;1.70;;;31.00;23.50;;;;;;10304953;28;20231;-70
2022/07/04 15:03:36;;;;;;;1.93;1.70;;;31.00;23.60;;;;;;10299222;28;20227;-71
2022/07/04 15:08:41;;;;;;;1.73;1.63;;;31.10;23.20;;;;;;10300955;28;20859;-71
2022/07/04 15:13:44;;;;;;;1.80;1.70;;;31.10;23.10;;;;;;10311458;28;20227;-71
2022/07/04 15:18:47;;;;;;;1.90;1.70;;;31.10;23.40;;;;;;10302028;28;20230;-70
2022/07/04 15:29:13;;;;;;;2.03;1.80;;;31.10;22.90;;;;;;10309011;28;20242;-68
2022/07/04 15:34:16;;;;;;;1.80;1.70;;;31.20;22.90;;;;;;10307400;28;20259;-76
2022/07/04 15:39:21;;;;;;;1.93;1.83;;;31.10;22.80;;;;;;10312395;28;20222;-76
2022/07/04 15:44:24;;;;;;;1.87;1.77;;;31.10;22.90;;;;;;10315634;28;20238;-75
2022/07/04 15:49:27;;;;;;;1.80;1.67;;;31.10;23.10;;;;;;10321039;28;20319;-76
2022/07/04 15:54:32;;;;;;;1.90;1.80;;;31.10;23.10;;;;;;10318500;28;20235;-76
2022/07/04 15:59:35;;;;;;;1.80;1.70;;;31.10;23.00;;;;;;10318545;28;20714;-74
2022/07/04 16:04:39;;;;;;;1.80;1.70;;;31.10;23.00;;;;;;10320897;28;20786;-74
2022/07/04 16:09:43;;;;;;;2.10;1.90;;;31.10;23.00;;;;;;10316080;28;20234;-73
2022/07/04 16:14:46;;;;;;;3.20;2.00;;;31.10;22.60;;;;;;10319928;28;20226;-76
2022/07/04 16:19:50;;;;;;;1.80;1.70;;;31.00;22.70;;;;;;10324940;28;20227;-73
2022/07/04 16:24:55;;;;;;;2.77;2.10;;;31.00;22.70;;;;;;10318957;28;20232;-74
2022/07/04 16:29:59;;;;;;;2.80;1.80;;;31.00;22.70;;;;;;10314523;28;20231;-73
2022/07/04 16:35:02;;;;;;;2.13;1.77;;;30.90;23.10;;;;;;10313833;28;20227;-73
2022/07/04 16:40:08;;;;;;;1.90;1.80;;;30.90;22.60;;;;;;10317398;28;20236;-73
2022/07/04 16:45:12;;;;;;;1.80;1.70;;;30.80;22.20;;;;;;10318854;28;20734;-73
2022/07/04 16:50:15;;;;;;;2.90;1.83;;;30.70;22.60;;;;;;10319290;28;20223;-73
2022/07/04 16:55:20;;;;;;;1.97;1.80;;;30.70;22.60;;;;;;10319561;28;20242;-73
2022/07/04 17:00:23;;;;;;;1.77;1.67;;;30.70;22.60;;;;;;10314653;28;20226;-73
2022/07/04 17:05:27;;;;;;;2.40;2.20;;;30.60;22.90;;;;;;10313586;28;20231;-73
2022/07/04 17:10:31;;;;;;;1.80;1.70;;;30.70;22.90;;;;;;10325363;28;20703;-73
2022/07/04 17:15:34;;;;;;;2.50;1.70;;;30.60;22.80;;;;;;10316273;28;20318;-73
2022/07/04 17:20:38;;;;;;;1.80;1.70;;;30.60;22.90;;;;;;10320100;28;20237;-73
2022/07/04 17:25:43;;;;;;;2.50;1.80;;;30.50;22.80;;;;;;10312532;28;20235;-73
2022/07/04 17:30:46;;;;;;;1.97;1.80;;;30.40;22.70;;;;;;10317607;28;20231;-75
2022/07/04 17:35:54;;;;;;;2.00;1.77;;;30.30;22.70;;;;;;10324156;28;20712;-75
2022/07/04 17:46:19;;;;;;;2.10;1.90;;;30.20;22.90;;;;;;10319789;28;20265;-76
2022/07/04 17:51:22;;;;;;;1.57;1.50;;;30.20;23.20;;;;;;10322679;28;20231;-76
2022/07/04 17:56:27;;;;;;;1.77;1.67;;;30.20;23.30;;;;;;10328364;28;20233;-75
2022/07/04 18:01:30;;;;;;;1.70;1.60;;;30.10;23.10;;;;;;10322925;28;20245;-76
2022/07/04 18:06:34;;;;;;;2.67;1.77;;;30.10;23.30;;;;;;10326365;28;20288;-75
2022/07/04 18:11:38;;;;;;;1.60;1.50;;;30.00;23.20;;;;;;10327668;28;20234;-71
2022/07/04 18:16:41;;;;;;;1.87;1.70;;;30.00;23.20;;;;;;10319452;28;20234;-70
2022/07/04 18:21:45;;;;;;;3.67;1.77;;;30.00;23.40;;;;;;10323954;28;20231;-71
2022/07/04 18:26:49;;;;;;;1.80;1.70;;;29.90;24.00;;;;;;10322123;28;20223;-70
2022/07/04 18:31:54;;;;;;;3.33;1.63;;;29.90;23.60;;;;;;10323416;28;20223;-71
2022/07/04 18:36:57;;;;;;;1.93;1.73;;;29.90;23.70;;;;;;10318752;28;20834;-71
2022/07/04 18:47:23;;;;;;;3.40;1.67;;;29.80;24.00;;;;;;10296726;28;20231;-71
2022/07/04 18:52:26;;;;;;;1.83;1.70;;;29.80;23.80;;;;;;10303678;28;20230;-71
2022/07/04 18:57:30;;;;;;;1.60;1.50;;;29.70;23.90;;;;;;10300210;28;20742;-70
2022/07/04 19:02:34;;;;;;;1.80;1.70;;;29.60;23.70;;;;;;10297469;28;20245;-71
2022/07/04 19:07:38;;;;;;;1.90;1.60;;;29.60;23.70;;;;;;10297233;28;20235;-70
2022/07/04 19:12:42;;;;;;;2.07;1.70;;;29.50;23.70;;;;;;10302304;28;20576;-71
2022/07/04 19:17:46;;;;;;;1.93;1.60;;;29.40;23.70;;;;;;10305356;28;20234;-70
2022/07/04 19:22:50;;;;;;;1.70;1.60;;;29.30;23.80;;;;;;10298853;28;20234;-73
2022/07/04 19:27:54;;;;;;;1.63;1.53;;;29.30;23.90;;;;;;10301496;28;20719;-73
2022/07/04 19:32:58;;;;;;;2.53;1.90;;;29.20;24.00;;;;;;10299702;28;20235;-73
2022/07/04 19:38:01;;;;;;;2.37;1.80;;;29.10;24.10;;;;;;10304016;28;22099;-73
2022/07/04 19:43:05;;;;;;;1.83;1.50;;;29.00;24.10;;;;;;10289388;28;20317;-73
2022/07/04 19:48:16;;;;;;;1.80;1.70;;;29.00;24.20;;;;;;10301942;28;20238;-73
2022/07/04 19:53:19;;;;;;;1.67;1.50;;;28.90;24.20;;;;;;10302981;28;20222;-73
2022/07/04 19:58:24;;;;;;;2.23;1.53;;;28.90;24.20;;;;;;10296645;28;20222;-73
2022/07/04 20:03:27;;;;;;;2.43;1.60;;;28.80;24.30;;;;;;10302743;28;20234;-73
2022/07/04 20:08:30;;;;;;;1.70;1.60;;;28.80;24.40;;;;;;10295073;28;20737;-75
2022/07/04 20:13:35;;;;;;;1.80;1.70;;;28.80;24.50;;;;;;10294929;28;20788;-74
2022/07/04 20:18:38;;;;;;;1.67;1.50;;;28.70;24.50;;;;;;10302769;28;20227;-72
2022/07/04 20:23:42;;;;;;;2.00;1.57;;;28.70;24.50;;;;;;10302100;28;20238;-72
2022/07/04 20:28:46;;;;;;;1.80;1.70;;;28.70;24.60;;;;;;10316670;28;20230;-75
2022/07/04 20:33:50;;;;;;;2.50;2.03;;;28.60;24.70;;;;;;10310492;28;20665;-75
2022/07/04 20:38:53;;;;;;;2.17;1.80;;;28.50;24.80;;;;;;10307678;28;20574;-74
2022/07/04 20:43:58;;;;;;;4.03;1.83;;;28.40;24.90;;;;;;10305413;28;20741;-74
2022/07/04 20:49:01;;;;;;;2.10;1.87;;;28.30;25.40;;;;;;10310735;28;20592;-74
2022/07/04 20:54:04;;;;;;;2.30;2.20;;;28.20;25.60;;;;;;10320117;28;20229;-74
2022/07/04 20:59:10;;;;;;;2.63;2.43;;;28.00;26.00;;;;;;10317951;28;20227;-73
2022/07/04 21:04:13;;;;;;;2.73;2.20;;;27.50;27.40;;;;;;10317853;28;20254;-73
2022/07/04 21:09:16;;;;;;;3.67;2.60;;;27.00;27.80;;;;;;10316921;28;20223;-73
2022/07/04 21:14:23;;;;;;;2.97;2.70;;;26.50;28.60;;;;;;10317609;28;20242;-73
2022/07/04 21:19:26;;;;;;;2.80;2.43;;;26.10;29.40;;;;;;10322325;28;20230;-73
2022/07/04 21:24:29;;;;;;;3.40;3.10;;;25.70;29.50;;;;;;10329421;28;20233;-73
2022/07/04 21:29:34;;;;;;;3.20;2.90;;;25.40;30.10;;;;;;10322211;28;20223;-73
2022/07/04 21:34:37;;;;;;;3.00;2.67;;;25.20;31.80;;;;;;10324076;28;21154;-73
2022/07/04 21:39:40;;;;;;;2.87;2.50;;;24.90;31.60;;;;;;10332960;28;20230;-73
2022/07/04 21:44:45;;;;;;;2.53;2.20;;;24.70;32.30;;;;;;10326748;28;20257;-73
2022/07/04 21:49:49;;;;;;;3.20;2.60;;;24.50;33.60;;;;;;10326883;28;20227;-73
2022/07/04 21:54:52;;;;;;;2.67;2.47;;;24.40;33.10;;;;;;10323414;28;20242;-73
2022/07/04 21:59:56;;;;;;;2.90;2.67;;;24.20;33.20;;;;;;10331846;28;21017;-73
2022/07/04 22:04:59;;;;;;;3.10;2.40;;;24.20;34.70;;;;;;10326504;28;20231;-73
2022/07/04 22:10:03;;;;;;;2.57;2.37;;;24.10;33.90;;;;;;10330683;28;20311;-73
2022/07/04 22:15:10;;;;;;;4.43;2.57;;;24.10;34.00;;;;;;10328267;28;20234;-71
2022/07/04 22:20:13;;;;;;;3.20;2.47;;;24.10;35.90;;;;;;10328808;28;20235;-71
2022/07/04 22:25:16;;;;;;;3.30;2.57;;;24.00;34.60;;;;;;10328351;28;20399;-72
2022/07/04 22:30:21;;;;;;;3.63;2.43;;;24.00;34.70;;;;;;10323535;28;20226;-72
2022/07/04 22:35:24;;;;;;;3.17;2.60;;;24.00;35.80;;;;;;10323727;28;20602;-73
2022/07/04 22:40:28;;;;;;;3.17;2.57;;;23.90;35.20;;;;;;10322646;28;20238;-72
2022/07/04 22:45:32;;;;;;;2.60;2.40;;;23.80;35.40;;;;;;10325029;28;20230;-72
2022/07/04 22:51:10;;;;;;;2.70;2.50;;;23.80;36.40;;;;;;10323062;28;20229;-73
2022/07/04 22:55:59;;;;;;;2.67;2.47;;;23.70;36.00;;;;;;10327009;28;20241;-72
2022/07/04 23:01:03;;;;;;;2.90;2.70;;;23.60;36.10;;;;;;10322469;28;20223;-71
2022/07/04 23:06:07;;;;;;;4.73;3.30;;;23.60;37.40;;;;;;10322705;28;21187;-72
2022/07/04 23:11:10;;;;;;;4.13;2.60;;;23.60;36.60;;;;;;10327083;28;20605;-72
2022/07/04 23:16:15;;;;;;;2.60;2.40;;;23.50;36.70;;;;;;10311182;28;20231;-72
2022/07/04 23:21:18;;;;;;;3.03;2.80;;;23.50;37.60;;;;;;10336738;28;20821;-72
2022/07/04 23:26:23;;;;;;;2.57;2.10;;;23.50;37.20;;;;;;10322128;28;20242;-72
2022/07/04 23:31:28;;;;;;;2.60;2.40;;;23.50;37.40;;;;;;10325407;28;20239;-73
2022/07/04 23:36:31;;;;;;;2.80;2.60;;;23.40;38.10;;;;;;10322181;28;20254;-68
2022/07/04 23:41:35;;;;;;;2.87;2.63;;;23.40;37.60;;;;;;10320876;28;20756;-68
2022/07/04 23:46:39;;;;;;;3.10;2.80;;;23.30;37.90;;;;;;10319404;28;20734;-68
2022/07/04 23:51:42;;;;;;;3.03;2.70;;;23.30;39.10;;;;;;10328388;28;20234;-68
2022/07/04 23:56:47;;;;;;;2.80;2.60;;;23.20;38.10;;;;;;10316443;28;20230;-69
